createdAt,value
2023-05-23T00:03:01.011Z,975.98
2023-05-23T00:15:01.396Z,975.95
2023-05-23T00:27:01.852Z,975.92
2023-05-23T00:39:02.295Z,975.95
2023-05-23T00:51:02.719Z,975.93
2023-05-23T01:03:03.312Z,975.81
2023-05-23T01:15:03.678Z,975.83
2023-05-23T01:27:04.132Z,975.66
2023-05-23T01:39:04.568Z,975.70
2023-05-23T01:51:04.961Z,975.67
2023-05-23T02:03:05.516Z,975.53
2023-05-23T02:15:05.894Z,975.47
2023-05-23T02:27:06.343Z,975.35
2023-05-23T02:39:06.822Z,975.36
2023-05-23T02:51:07.286Z,975.56
2023-05-23T03:03:07.810Z,975.29
2023-05-23T03:15:08.133Z,975.22
2023-05-23T03:27:08.633Z,975.02
2023-05-23T03:39:09.054Z,974.99
2023-05-23T03:51:09.514Z,974.85
2023-05-23T04:03:10.139Z,974.81
2023-05-23T04:15:10.439Z,974.91
2023-05-23T04:27:10.961Z,974.97
2023-05-23T04:39:11.343Z,975.00
2023-05-23T04:51:11.843Z,975.08
2023-05-23T05:03:12.243Z,974.92
2023-05-23T05:15:12.737Z,975.07
2023-05-23T05:27:13.180Z,975.15
2023-05-23T05:39:13.620Z,975.20
2023-05-23T05:51:14.093Z,975.20
2023-05-23T06:03:17.119Z,974.84
2023-05-23T06:15:14.963Z,974.60
2023-05-23T06:27:15.457Z,974.50
2023-05-23T06:39:15.875Z,974.31
2023-05-23T06:51:16.452Z,974.35
2023-05-23T07:03:16.806Z,974.37
2023-05-23T07:15:17.299Z,974.33
2023-05-23T07:27:17.682Z,974.33
2023-05-23T07:39:18.206Z,974.23
2023-05-23T07:51:18.636Z,974.23
2023-05-23T08:03:19.253Z,974.19
2023-05-23T08:15:19.543Z,974.21
2023-05-23T08:27:19.971Z,974.28
2023-05-23T08:39:20.459Z,974.16
2023-05-23T08:51:20.901Z,974.17
2023-05-23T09:03:21.352Z,974.31
2023-05-23T09:15:21.847Z,974.22
2023-05-23T09:27:22.267Z,974.25
2023-05-23T09:39:22.712Z,974.09
2023-05-23T09:51:23.216Z,974.03
2023-05-23T10:03:23.652Z,973.93
2023-05-23T10:15:24.119Z,973.91
2023-05-23T10:27:24.559Z,973.92
2023-05-23T10:39:25.020Z,973.75
2023-05-23T10:51:25.457Z,973.65
2023-05-23T11:03:26.032Z,973.61
2023-05-23T11:15:26.381Z,974.27
2023-05-23T11:27:26.782Z,976.02
2023-05-23T11:56:44.653Z,975.71
2023-05-23T12:08:45.106Z,975.25
2023-05-23T12:20:45.588Z,975.42
2023-05-23T12:32:46.109Z,975.59
2023-05-23T12:44:46.532Z,975.43
2023-05-23T12:56:46.925Z,975.25
2023-05-23T13:08:47.439Z,974.56
2023-05-23T13:20:47.963Z,974.86
2023-05-23T13:32:49.561Z,975.09
2023-05-23T13:44:48.749Z,975.22
2023-05-23T13:56:49.255Z,975.53
2023-05-23T14:08:49.710Z,975.50
2023-05-23T14:20:50.153Z,974.94
2023-05-23T14:32:50.623Z,974.64
2023-05-23T14:44:51.033Z,974.85
2023-05-23T14:56:53.388Z,974.95
2023-05-23T15:08:51.985Z,975.23
2023-05-23T15:20:52.428Z,975.81
2023-05-23T15:32:55.799Z,975.60
2023-05-23T15:44:53.402Z,975.74
2023-05-23T15:56:53.761Z,976.22
2023-05-23T16:08:54.250Z,976.83
2023-05-23T16:20:54.768Z,977.17
2023-05-23T16:32:55.239Z,977.59
2023-05-23T16:44:55.628Z,977.73
2023-05-23T16:56:56.063Z,977.54
2023-05-23T17:08:56.531Z,977.08
2023-05-23T17:20:56.993Z,977.07
2023-05-23T17:32:57.477Z,977.19
2023-05-23T17:44:57.921Z,977.11
2023-05-23T17:56:58.332Z,977.34
2023-05-23T18:08:58.809Z,977.27
2023-05-23T18:20:59.245Z,977.22
2023-05-23T18:32:59.800Z,977.18
2023-05-23T18:45:00.150Z,977.43
2023-05-23T18:57:00.631Z,977.45
2023-05-23T19:09:01.075Z,977.61
2023-05-23T19:21:01.534Z,977.72
2023-05-23T19:33:01.992Z,977.73
2023-05-23T19:45:02.464Z,977.70
2023-05-23T19:57:02.881Z,977.93
2023-05-23T20:09:03.336Z,977.89
2023-05-23T20:21:05.177Z,978.14
2023-05-23T20:33:04.368Z,978.34
2023-05-23T20:45:04.689Z,978.46
2023-05-23T20:57:05.169Z,978.68
2023-05-23T21:09:05.598Z,978.70
2023-05-23T21:21:06.091Z,978.72
2023-05-23T21:33:06.531Z,978.65
2023-05-23T21:45:06.944Z,978.90
2023-05-23T21:57:07.430Z,978.94
2023-05-23T22:09:07.888Z,978.97
2023-05-23T22:21:08.320Z,978.85
2023-05-23T22:33:08.870Z,978.85
2023-05-23T22:45:09.239Z,978.89
2023-05-23T22:57:09.707Z,978.99
2023-05-23T23:09:10.191Z,979.07
2023-05-23T23:21:10.610Z,979.03
2023-05-23T23:33:11.073Z,979.27
2023-05-23T23:45:11.533Z,979.37
2023-05-23T23:57:11.963Z,979.36
